createdAt,value
2018-12-30T00:00:29.186Z,5.41
2018-12-30T00:01:30.042Z,7.70
2018-12-30T00:02:29.923Z,4.31
2018-12-30T00:03:30.246Z,5.87
2018-12-30T00:04:30.787Z,3.83
2018-12-30T00:05:30.682Z,6.51
2018-12-30T00:06:31.171Z,4.49
2018-12-30T00:07:31.575Z,6.20
2018-12-30T00:08:31.856Z,4.42
2018-12-30T00:09:32.449Z,3.84
2018-12-30T00:10:32.327Z,3.49
2018-12-30T00:11:33.136Z,2.89
2018-12-30T00:12:33.030Z,3.17
2018-12-30T00:13:34.064Z,5.08
2018-12-30T00:14:34.091Z,4.23
2018-12-30T00:15:34.267Z,4.88
2018-12-30T00:16:35.014Z,3.72
2018-12-30T00:17:35.423Z,2.42
2018-12-30T00:18:35.733Z,3.20
2018-12-30T00:19:42.594Z,3.56
2018-12-30T00:20:36.089Z,3.78
2018-12-30T00:21:36.126Z,3.33
2018-12-30T00:22:36.171Z,1.82
2018-12-30T00:23:36.188Z,1.70
2018-12-30T00:24:36.694Z,2.80
2018-12-30T00:25:36.718Z,2.53
2018-12-30T00:26:36.821Z,2.85
2018-12-30T00:27:36.916Z,2.19
2018-12-30T00:28:37.127Z,3.41
2018-12-30T00:29:37.126Z,4.04
2018-12-30T00:30:37.433Z,2.52
2018-12-30T00:31:37.640Z,2.39
2018-12-30T00:32:37.811Z,3.76
2018-12-30T00:33:38.186Z,4.50
2018-12-30T00:34:38.372Z,3.50
2018-12-30T00:35:38.502Z,3.22
2018-12-30T00:36:38.872Z,5.13
2018-12-30T00:37:38.939Z,4.07
2018-12-30T00:38:39.189Z,1.81
2018-12-30T00:39:39.315Z,2.75
2018-12-30T00:40:39.525Z,2.48
2018-12-30T00:41:39.438Z,3.57
2018-12-30T00:42:39.459Z,3.31
2018-12-30T00:43:39.860Z,3.11
2018-12-30T00:44:40.142Z,2.44
2018-12-30T00:45:40.510Z,2.01
2018-12-30T00:46:41.118Z,1.42
2018-12-30T00:47:40.904Z,2.25
2018-12-30T00:48:41.404Z,2.72
2018-12-30T00:49:41.957Z,1.90
2018-12-30T00:50:42.452Z,1.39
2018-12-30T00:51:42.925Z,3.18
2018-12-30T00:52:43.480Z,3.11
2018-12-30T00:53:43.396Z,2.13
2018-12-30T00:54:43.788Z,2.37
2018-12-30T00:55:43.804Z,4.02
2018-12-30T00:56:44.219Z,2.78
2018-12-30T00:57:44.622Z,3.17
2018-12-30T00:58:45.144Z,4.92
2018-12-30T00:59:45.040Z,3.37
2018-12-30T01:00:44.986Z,3.22
2018-12-30T01:01:45.277Z,3.14
2018-12-30T01:02:45.672Z,3.21
2018-12-30T01:03:47.132Z,2.03
2018-12-30T01:04:46.411Z,1.26
2018-12-30T01:05:46.423Z,1.65
2018-12-30T01:06:46.882Z,4.39
2018-12-30T01:07:47.416Z,2.67
2018-12-30T01:08:47.264Z,2.16
2018-12-30T01:09:47.667Z,1.02
2018-12-30T01:10:48.464Z,0.77
2018-12-30T01:11:48.971Z,1.29
2018-12-30T01:12:49.193Z,1.83
2018-12-30T01:13:49.247Z,1.90
2018-12-30T01:14:49.721Z,1.74
2018-12-30T01:15:49.931Z,1.29
2018-12-30T01:16:50.148Z,2.43
2018-12-30T01:17:50.459Z,1.52
2018-12-30T01:18:50.672Z,2.09
2018-12-30T01:19:50.882Z,2.29
2018-12-30T01:20:51.010Z,3.43
2018-12-30T01:21:51.302Z,1.55
2018-12-30T01:22:51.408Z,2.40
2018-12-30T01:23:51.428Z,3.23
2018-12-30T01:24:51.527Z,3.01
2018-12-30T01:25:51.632Z,1.96
2018-12-30T01:26:51.539Z,2.54
2018-12-30T01:27:51.947Z,2.94
2018-12-30T01:28:52.333Z,1.54
2018-12-30T01:29:52.499Z,2.31
2018-12-30T01:30:52.620Z,3.00
2018-12-30T01:31:52.731Z,1.49
2018-12-30T01:32:52.867Z,1.58
2018-12-30T01:33:52.994Z,1.85
2018-12-30T01:34:53.042Z,2.71
2018-12-30T01:35:53.144Z,1.55
2018-12-30T01:36:53.244Z,1.65
2018-12-30T01:37:53.548Z,2.23
2018-12-30T01:38:53.736Z,0.97
2018-12-30T01:39:53.900Z,2.76
2018-12-30T01:40:53.918Z,3.75
2018-12-30T01:41:54.784Z,3.28
2018-12-30T01:42:54.552Z,3.39
2018-12-30T01:43:54.923Z,2.22
2018-12-30T01:44:55.284Z,2.46
2018-12-30T01:45:55.591Z,1.54
2018-12-30T01:46:55.916Z,2.85
2018-12-30T01:47:56.207Z,2.15
2018-12-30T01:48:56.512Z,3.45
2018-12-30T01:49:56.921Z,1.74
2018-12-30T01:50:57.316Z,2.20
2018-12-30T01:51:57.745Z,2.58
2018-12-30T01:52:58.104Z,3.95
2018-12-30T01:53:58.387Z,2.89
2018-12-30T01:54:58.981Z,2.37
2018-12-30T01:55:58.830Z,2.21
2018-12-30T01:56:59.149Z,2.54
2018-12-30T01:57:59.439Z,3.08
2018-12-30T01:59:00.058Z,3.58
2018-12-30T02:00:00.171Z,3.18
2018-12-30T02:00:59.950Z,1.94
2018-12-30T02:02:00.379Z,1.98
2018-12-30T02:03:01.068Z,2.31
2018-12-30T02:04:01.097Z,1.63
2018-12-30T02:06:01.508Z,5.17
2018-12-30T02:07:01.725Z,3.21
2018-12-30T02:08:01.881Z,4.91
2018-12-30T02:09:02.331Z,2.99
2018-12-30T02:10:02.361Z,3.45
2018-12-30T02:11:02.642Z,4.87
2018-12-30T02:12:03.091Z,2.70
2018-12-30T02:13:03.509Z,2.10
2018-12-30T02:14:04.542Z,3.22
2018-12-30T02:15:04.246Z,3.44
2018-12-30T02:16:04.657Z,2.24
2018-12-30T02:17:04.866Z,1.49
2018-12-30T02:18:04.948Z,5.42
2018-12-30T02:19:05.088Z,1.32
2018-12-30T02:20:05.208Z,4.48
2018-12-30T02:21:05.523Z,2.40
2018-12-30T02:22:05.923Z,2.71
2018-12-30T02:23:06.243Z,3.74
2018-12-30T02:24:06.553Z,1.94
2018-12-30T02:25:06.660Z,1.69
2018-12-30T02:26:07.083Z,1.82
2018-12-30T02:27:07.139Z,2.12
2018-12-30T02:28:07.400Z,3.54
2018-12-30T02:29:07.411Z,2.65
2018-12-30T02:30:07.329Z,2.90
2018-12-30T02:31:07.826Z,4.12
2018-12-30T02:32:07.955Z,3.49
2018-12-30T02:33:08.251Z,3.44
2018-12-30T02:34:08.310Z,3.34
2018-12-30T02:35:08.592Z,3.01
2018-12-30T02:36:09.086Z,2.26
2018-12-30T02:37:08.897Z,1.02
2018-12-30T02:38:09.626Z,1.91
2018-12-30T02:39:09.649Z,2.94
2018-12-30T02:40:09.491Z,2.27
2018-12-30T02:41:09.874Z,4.88
2018-12-30T02:42:10.664Z,5.27
2018-12-30T02:43:10.760Z,2.24
2018-12-30T02:44:10.649Z,1.11
2018-12-30T02:45:11.194Z,3.52
2018-12-30T02:46:11.053Z,3.01
2018-12-30T02:47:11.639Z,4.65
2018-12-30T02:48:11.869Z,3.76
2018-12-30T02:49:11.661Z,3.95
2018-12-30T02:50:12.104Z,4.94
2018-12-30T02:51:12.637Z,3.10
2018-12-30T02:52:12.757Z,3.40
2018-12-30T02:53:12.652Z,4.52
2018-12-30T02:54:13.111Z,2.79
2018-12-30T02:55:14.351Z,5.53
2018-12-30T02:56:13.600Z,3.42
2018-12-30T02:57:13.982Z,4.64
2018-12-30T02:58:14.377Z,4.32
2018-12-30T02:59:14.696Z,4.49
2018-12-30T03:00:15.278Z,3.13
2018-12-30T03:01:15.306Z,3.33
2018-12-30T03:02:15.395Z,4.53
2018-12-30T03:03:15.133Z,3.44
2018-12-30T03:04:15.469Z,2.94
2018-12-30T03:05:16.150Z,4.78
2018-12-30T03:06:16.081Z,4.86
2018-12-30T03:07:16.419Z,3.23
2018-12-30T03:08:17.009Z,3.44
2018-12-30T03:09:16.803Z,3.68
2018-12-30T03:10:17.601Z,7.36
2018-12-30T03:12:17.715Z,3.33
2018-12-30T03:13:17.485Z,4.41
2018-12-30T03:14:18.456Z,4.94
2018-12-30T03:15:19.080Z,4.11
2018-12-30T03:16:19.500Z,6.59
2018-12-30T03:17:20.023Z,4.33
2018-12-30T03:18:19.816Z,6.75
2018-12-30T03:19:20.237Z,6.08
2018-12-30T03:20:20.446Z,3.98
2018-12-30T03:21:20.854Z,3.99
2018-12-30T03:22:21.371Z,2.48
2018-12-30T03:23:21.044Z,1.74
2018-12-30T03:24:21.182Z,1.69
2018-12-30T03:25:21.156Z,2.30
2018-12-30T03:26:21.915Z,3.33
2018-12-30T03:27:21.810Z,3.85
2018-12-30T03:28:22.734Z,5.58
2018-12-30T03:29:22.425Z,5.57
2018-12-30T03:30:22.471Z,5.21
2018-12-30T03:31:22.620Z,5.24
2018-12-30T03:32:22.800Z,5.50
2018-12-30T03:33:22.887Z,5.50
2018-12-30T03:34:23.088Z,3.56
2018-12-30T03:35:23.302Z,5.29
2018-12-30T03:36:23.491Z,6.29
2018-12-30T03:37:23.652Z,4.75
2018-12-30T03:38:23.774Z,3.66
2018-12-30T03:39:23.958Z,4.41
2018-12-30T03:40:23.952Z,4.87
2018-12-30T03:41:24.054Z,3.87
2018-12-30T03:42:25.133Z,6.03
2018-12-30T03:43:24.502Z,5.13
2018-12-30T03:44:25.047Z,2.57
2018-12-30T03:45:24.821Z,2.50
2018-12-30T03:46:25.154Z,3.96
2018-12-30T03:47:25.462Z,4.79
2018-12-30T03:48:25.771Z,3.20
2018-12-30T03:49:26.103Z,4.03
2018-12-30T03:50:26.707Z,3.53
2018-12-30T03:51:26.648Z,3.58
2018-12-30T03:52:27.350Z,2.77
2018-12-30T03:53:27.416Z,3.85
2018-12-30T03:54:27.680Z,3.96
2018-12-30T03:55:28.072Z,4.30
2018-12-30T03:56:28.393Z,6.94
2018-12-30T03:57:28.801Z,5.76
2018-12-30T03:58:29.371Z,4.57
2018-12-30T03:59:29.222Z,3.38
2018-12-30T04:00:29.499Z,3.22
2018-12-30T04:01:30.223Z,5.44
2018-12-30T04:02:30.322Z,7.76
2018-12-30T04:03:30.079Z,6.58
2018-12-30T04:04:30.380Z,3.29
2018-12-30T04:05:30.686Z,2.23
2018-12-30T04:06:31.110Z,5.83
2018-12-30T04:07:31.490Z,6.62
2018-12-30T04:08:31.828Z,4.15
2018-12-30T04:09:32.316Z,4.56
2018-12-30T04:10:32.802Z,5.04
2018-12-30T04:11:33.874Z,3.43
2018-12-30T04:12:33.975Z,3.72
2018-12-30T04:13:34.203Z,3.95
2018-12-30T04:14:34.407Z,2.56
2018-12-30T04:15:34.731Z,1.97
2018-12-30T04:16:35.032Z,3.85
2018-12-30T04:17:35.453Z,3.51
2018-12-30T04:18:35.718Z,3.92
2018-12-30T04:19:35.874Z,2.90
2018-12-30T04:20:35.828Z,3.58
2018-12-30T04:21:36.399Z,4.28
2018-12-30T04:22:36.610Z,3.11
2018-12-30T04:23:36.720Z,5.09
2018-12-30T04:24:36.829Z,3.00
2018-12-30T04:25:36.939Z,1.69
2018-12-30T04:26:37.037Z,3.92
2018-12-30T04:27:37.041Z,3.04
2018-12-30T04:28:37.362Z,3.21
2018-12-30T04:29:37.574Z,2.95
2018-12-30T04:30:37.749Z,2.52
2018-12-30T04:31:37.851Z,2.69
2018-12-30T04:32:38.091Z,4.31
2018-12-30T04:34:38.302Z,2.68
2018-12-30T04:35:38.543Z,3.02
2018-12-30T04:36:38.750Z,2.66
2018-12-30T04:37:38.944Z,1.73
2018-12-30T04:38:39.946Z,1.99
2018-12-30T04:39:39.087Z,1.89
2018-12-30T04:40:39.388Z,1.58
2018-12-30T04:41:39.705Z,2.84
2018-12-30T04:42:39.711Z,4.00
2018-12-30T04:43:39.724Z,2.59
2018-12-30T04:44:40.079Z,2.88
2018-12-30T04:45:40.369Z,1.42
2018-12-30T04:46:40.626Z,1.41
2018-12-30T04:47:42.145Z,1.36
2018-12-30T04:48:40.945Z,2.12
2018-12-30T04:49:41.262Z,1.90
2018-12-30T04:50:41.705Z,2.53
2018-12-30T04:51:42.227Z,0.83
2018-12-30T04:52:42.232Z,2.68
2018-12-30T04:53:42.225Z,2.99
2018-12-30T04:54:42.129Z,2.81
2018-12-30T04:55:42.513Z,1.85
2018-12-30T04:56:42.987Z,1.65
2018-12-30T04:57:43.362Z,1.05
2018-12-30T04:58:43.738Z,1.80
2018-12-30T04:59:44.055Z,2.16
2018-12-30T05:00:44.462Z,2.01
2018-12-30T05:01:44.898Z,1.95
2018-12-30T05:02:45.741Z,3.51
2018-12-30T05:03:45.772Z,2.67
2018-12-30T05:04:45.551Z,2.34
2018-12-30T05:05:46.120Z,3.29
2018-12-30T05:06:46.124Z,1.82
2018-12-30T05:07:46.052Z,2.79
2018-12-30T05:08:46.437Z,2.57
2018-12-30T05:09:46.782Z,1.75
2018-12-30T05:10:47.076Z,2.26
2018-12-30T05:11:47.443Z,3.48
2018-12-30T05:12:48.206Z,2.02
2018-12-30T05:13:48.311Z,2.76
2018-12-30T05:14:48.837Z,1.88
2018-12-30T05:15:48.647Z,2.27
2018-12-30T05:16:49.354Z,2.22
2018-12-30T05:17:49.567Z,2.94
2018-12-30T05:18:49.987Z,2.70
2018-12-30T05:19:50.413Z,1.54
2018-12-30T05:20:50.823Z,2.75
2018-12-30T05:21:50.967Z,2.97
2018-12-30T05:22:51.027Z,1.55
2018-12-30T05:23:51.350Z,2.36
2018-12-30T05:24:51.481Z,2.18
2018-12-30T05:25:51.577Z,1.53
2018-12-30T05:26:51.676Z,2.53
2018-12-30T05:27:51.679Z,2.29
2018-12-30T05:28:51.982Z,1.75
2018-12-30T05:29:51.907Z,1.91
2018-12-30T05:30:52.257Z,3.22
2018-12-30T05:31:52.508Z,0.84
2018-12-30T05:32:52.585Z,1.19
2018-12-30T05:33:52.666Z,2.76
2018-12-30T05:34:52.891Z,2.62
2018-12-30T05:35:53.072Z,2.05
2018-12-30T05:36:53.372Z,3.06
2018-12-30T05:37:53.618Z,2.61
2018-12-30T05:38:53.916Z,2.26
2018-12-30T05:39:54.025Z,1.29
2018-12-30T05:40:54.044Z,2.73
2018-12-30T05:41:54.145Z,2.84
2018-12-30T05:42:54.157Z,2.00
2018-12-30T05:43:54.274Z,1.86
2018-12-30T05:44:54.352Z,1.62
2018-12-30T05:45:54.333Z,1.85
2018-12-30T05:46:54.684Z,1.11
2018-12-30T05:47:55.020Z,1.71
2018-12-30T05:48:55.423Z,2.18
2018-12-30T05:49:55.699Z,1.40
2018-12-30T05:50:56.252Z,0.77
2018-12-30T05:51:56.208Z,0.96
2018-12-30T05:52:56.770Z,1.01
2018-12-30T05:53:56.579Z,1.58
2018-12-30T05:54:57.077Z,1.33
2018-12-30T05:55:57.408Z,1.62
2018-12-30T05:56:57.795Z,1.07
2018-12-30T05:57:58.147Z,1.70
2018-12-30T05:58:58.861Z,2.16
2018-12-30T05:59:58.680Z,1.76
2018-12-30T06:00:59.335Z,1.63
2018-12-30T06:01:59.281Z,1.34
2018-12-30T06:02:59.622Z,1.15
2018-12-30T06:04:00.005Z,2.05
2018-12-30T06:05:00.440Z,1.18
2018-12-30T06:06:01.176Z,1.30
2018-12-30T06:07:01.667Z,0.72
2018-12-30T06:08:01.427Z,1.24
2018-12-30T06:09:01.251Z,1.36
2018-12-30T06:10:01.611Z,1.93
2018-12-30T06:11:02.133Z,0.53
2018-12-30T06:12:02.238Z,1.31
2018-12-30T06:13:02.518Z,1.49
2018-12-30T06:14:02.720Z,1.56
2018-12-30T06:15:02.836Z,1.00
2018-12-30T06:16:03.869Z,1.05
2018-12-30T06:17:03.883Z,1.13
2018-12-30T06:18:04.190Z,0.52
2018-12-30T06:19:04.402Z,0.32
2018-12-30T06:20:04.713Z,1.86
2018-12-30T06:21:04.616Z,1.53
2018-12-30T06:22:05.146Z,1.89
2018-12-30T06:23:05.349Z,1.50
2018-12-30T06:24:05.661Z,0.60
2018-12-30T06:25:05.450Z,1.01
2018-12-30T06:26:08.789Z,1.35
2018-12-30T06:27:06.301Z,0.73
2018-12-30T06:28:06.609Z,0.37
2018-12-30T06:29:06.924Z,1.10
2018-12-30T06:30:06.784Z,2.11
2018-12-30T06:31:07.169Z,1.02
2018-12-30T06:32:07.337Z,0.59
2018-12-30T06:33:07.987Z,1.80
2018-12-30T06:34:07.663Z,2.58
2018-12-30T06:35:07.777Z,2.35
2018-12-30T06:36:07.857Z,1.20
2018-12-30T06:37:07.668Z,1.48
2018-12-30T06:38:08.349Z,1.54
2018-12-30T06:39:08.229Z,1.21
2018-12-30T06:40:11.487Z,1.72
2018-12-30T06:41:09.113Z,1.83
2018-12-30T06:42:08.979Z,0.51
2018-12-30T06:43:09.288Z,0.43
2018-12-30T06:44:09.620Z,0.22
2018-12-30T06:45:10.184Z,0.66
2018-12-30T06:46:10.109Z,0.47
2018-12-30T06:47:10.753Z,0.56
2018-12-30T06:48:11.247Z,0.17
2018-12-30T06:49:11.245Z,0.70
2018-12-30T06:50:11.181Z,0.52
2018-12-30T06:51:11.487Z,1.30
2018-12-30T06:52:11.909Z,1.15
2018-12-30T06:53:12.192Z,1.15
2018-12-30T06:54:12.509Z,0.87
2018-12-30T06:55:13.339Z,0.06
2018-12-30T06:56:13.412Z,0.00
2018-12-30T06:57:13.495Z,0.44
2018-12-30T06:58:13.291Z,0.75
2018-12-30T06:59:13.544Z,0.39
2018-12-30T07:00:14.175Z,0.11
2018-12-30T07:01:14.191Z,0.61
2018-12-30T07:02:14.026Z,0.80
2018-12-30T07:03:14.639Z,1.08
2018-12-30T07:04:14.970Z,0.78
2018-12-30T07:05:15.643Z,0.72
2018-12-30T07:06:15.403Z,0.21
2018-12-30T07:07:15.765Z,0.37
2018-12-30T07:08:16.131Z,0.38
2018-12-30T07:09:16.431Z,0.57
2018-12-30T07:10:17.314Z,1.26
2018-12-30T07:11:17.192Z,0.72
2018-12-30T07:12:17.672Z,0.00
2018-12-30T07:13:18.383Z,0.57
2018-12-30T07:14:18.886Z,1.04
2018-12-30T07:15:18.895Z,0.47
2018-12-30T07:16:19.721Z,0.88
2018-12-30T07:17:19.724Z,0.10
2018-12-30T07:18:20.151Z,0.58
2018-12-30T07:19:20.565Z,0.69
2018-12-30T07:20:20.670Z,0.64
2018-12-30T07:21:21.083Z,0.76
2018-12-30T07:22:21.223Z,0.43
2018-12-30T07:23:21.159Z,0.38
2018-12-30T07:24:22.027Z,0.50
2018-12-30T07:25:22.122Z,1.53
2018-12-30T07:26:22.026Z,1.10
2018-12-30T07:27:22.418Z,1.30
2018-12-30T07:28:22.494Z,1.65
2018-12-30T07:29:22.564Z,0.59
2018-12-30T07:30:22.631Z,0.96
2018-12-30T07:31:22.712Z,1.69
2018-12-30T07:32:22.876Z,0.75
2018-12-30T07:33:23.213Z,0.80
2018-12-30T07:34:23.506Z,0.59
2018-12-30T07:36:23.862Z,1.40
2018-12-30T07:37:24.129Z,1.14
2018-12-30T07:38:24.243Z,2.11
2018-12-30T07:39:24.242Z,1.56
2018-12-30T07:40:24.762Z,0.74
2018-12-30T07:41:24.735Z,0.89
2018-12-30T07:42:25.101Z,0.90
2018-12-30T07:43:25.502Z,1.42
2018-12-30T07:44:26.080Z,1.09
2018-12-30T07:45:26.364Z,1.20
2018-12-30T07:46:26.188Z,1.19
2018-12-30T07:47:26.505Z,1.56
2018-12-30T07:48:26.978Z,1.97
2018-12-30T07:49:27.421Z,1.60
2018-12-30T07:50:27.763Z,1.67
2018-12-30T07:51:28.069Z,1.54
2018-12-30T07:52:28.386Z,0.94
2018-12-30T07:53:28.701Z,2.06
2018-12-30T07:54:29.399Z,1.21
2018-12-30T07:55:29.222Z,1.20
2018-12-30T07:56:29.705Z,1.70
2018-12-30T07:57:30.174Z,2.50
2018-12-30T07:58:30.477Z,1.50
2018-12-30T07:59:30.851Z,0.84
2018-12-30T08:00:31.136Z,1.54
2018-12-30T08:01:31.419Z,1.79
2018-12-30T08:02:31.861Z,1.14
2018-12-30T08:03:32.247Z,2.23
2018-12-30T08:04:32.561Z,1.56
2018-12-30T08:05:33.149Z,1.59
2018-12-30T08:06:33.170Z,1.62
2018-12-30T08:07:33.269Z,3.05
2018-12-30T08:08:33.889Z,1.66
2018-12-30T08:09:33.699Z,1.52
2018-12-30T08:10:34.311Z,0.95
2018-12-30T08:11:34.622Z,0.82
2018-12-30T08:12:34.942Z,1.00
2018-12-30T08:13:35.148Z,2.09
2018-12-30T08:14:35.267Z,1.51
2018-12-30T08:15:35.674Z,1.41
2018-12-30T08:16:36.090Z,1.68
2018-12-30T08:17:36.306Z,1.42
2018-12-30T08:18:36.429Z,2.03
2018-12-30T08:19:36.642Z,1.97
2018-12-30T08:20:36.834Z,2.80
2018-12-30T08:21:36.738Z,2.01
2018-12-30T08:22:37.142Z,1.91
2018-12-30T08:23:37.524Z,1.67
2018-12-30T08:24:37.602Z,0.73
2018-12-30T08:25:37.750Z,1.92
2018-12-30T08:26:37.843Z,2.14
2018-12-30T08:27:38.047Z,1.04
2018-12-30T08:28:38.276Z,0.79
2018-12-30T08:29:38.533Z,0.66
2018-12-30T08:30:38.776Z,1.34
2018-12-30T08:31:38.911Z,0.86
2018-12-30T08:32:38.966Z,1.10
2018-12-30T08:33:38.974Z,0.93
2018-12-30T08:34:39.040Z,1.14
2018-12-30T08:35:39.193Z,1.61
2018-12-30T08:36:39.117Z,1.01
2018-12-30T08:37:39.736Z,0.97
2018-12-30T08:38:39.556Z,0.93
2018-12-30T08:39:39.979Z,1.53
2018-12-30T08:40:40.429Z,1.60
2018-12-30T08:41:40.290Z,1.69
2018-12-30T08:42:40.647Z,0.84
2018-12-30T08:43:40.758Z,0.65
2018-12-30T08:44:41.803Z,1.14
2018-12-30T08:45:41.663Z,0.66
2018-12-30T08:46:41.952Z,1.01
2018-12-30T08:47:42.266Z,0.90
2018-12-30T08:49:42.588Z,1.19
2018-12-30T08:50:42.989Z,1.62
2018-12-30T08:51:43.306Z,1.80
2018-12-30T08:52:43.619Z,0.74
2018-12-30T08:53:44.141Z,1.25
2018-12-30T08:54:44.494Z,1.24
2018-12-30T08:55:44.520Z,1.86
2018-12-30T08:56:44.393Z,2.50
2018-12-30T08:57:44.727Z,1.29
2018-12-30T08:58:44.995Z,1.99
2018-12-30T08:59:45.459Z,3.70
2018-12-30T09:00:45.885Z,2.31
2018-12-30T09:01:46.338Z,2.15
2018-12-30T09:02:46.694Z,2.38
2018-12-30T09:03:47.281Z,0.95
2018-12-30T09:04:47.268Z,0.94
2018-12-30T09:05:47.654Z,0.84
2018-12-30T09:06:48.500Z,0.58
2018-12-30T09:07:49.226Z,1.59
2018-12-30T09:08:49.230Z,2.52
2018-12-30T09:09:50.071Z,1.40
2018-12-30T09:10:50.478Z,1.78
2018-12-30T09:11:51.914Z,1.84
2018-12-30T09:12:50.898Z,2.26
2018-12-30T09:13:51.621Z,1.71
2018-12-30T09:14:52.140Z,2.29
2018-12-30T09:15:51.721Z,2.37
2018-12-30T09:16:52.055Z,1.04
2018-12-30T09:17:51.949Z,2.16
2018-12-30T09:18:52.373Z,1.37
2018-12-30T09:19:52.513Z,0.52
2018-12-30T09:20:52.658Z,1.80
2018-12-30T09:21:52.893Z,1.32
2018-12-30T09:22:53.120Z,2.49
2018-12-30T09:24:53.436Z,3.23
2018-12-30T09:25:53.850Z,1.31
2018-12-30T09:26:53.818Z,1.70
2018-12-30T09:27:54.419Z,1.43
2018-12-30T09:28:54.417Z,2.65
2018-12-30T09:29:54.896Z,2.18
2018-12-30T09:30:55.238Z,1.61
2018-12-30T09:31:55.516Z,2.13
2018-12-30T09:32:55.995Z,1.67
2018-12-30T09:33:56.576Z,2.00
2018-12-30T09:34:56.657Z,1.61
2018-12-30T09:35:56.527Z,1.34
2018-12-30T09:36:56.937Z,1.38
2018-12-30T09:37:57.235Z,0.79
2018-12-30T09:38:57.503Z,1.19
2018-12-30T09:39:57.873Z,1.17
2018-12-30T09:40:58.550Z,0.83
2018-12-30T09:41:58.496Z,1.34
2018-12-30T09:42:58.861Z,1.01
2018-12-30T09:43:59.233Z,0.76
2018-12-30T09:44:59.305Z,1.51
2018-12-30T09:45:59.896Z,1.67
2018-12-30T09:47:00.136Z,2.11
2018-12-30T09:48:00.412Z,1.60
2018-12-30T09:49:00.697Z,1.38
2018-12-30T09:50:01.083Z,0.87
2018-12-30T09:51:01.887Z,0.73
2018-12-30T09:52:01.923Z,1.32
2018-12-30T09:53:02.303Z,1.17
2018-12-30T09:54:02.686Z,2.08
2018-12-30T09:55:02.804Z,1.57
2018-12-30T09:56:03.355Z,1.27
2018-12-30T09:57:03.065Z,2.35
2018-12-30T09:58:03.540Z,1.15
2018-12-30T10:00:04.207Z,0.83
2018-12-30T10:01:04.521Z,0.94
2018-12-30T10:02:04.526Z,0.56
2018-12-30T10:03:04.952Z,0.90
2018-12-30T10:04:05.255Z,0.36
2018-12-30T10:05:05.569Z,0.45
2018-12-30T10:06:05.674Z,1.21
2018-12-30T10:07:05.886Z,1.09
2018-12-30T10:08:06.414Z,0.91
2018-12-30T10:09:06.313Z,1.72
2018-12-30T10:10:06.520Z,2.90
2018-12-30T10:11:06.732Z,1.08
2018-12-30T10:12:06.788Z,0.65
2018-12-30T10:13:07.122Z,1.37
2018-12-30T10:14:07.249Z,3.25
2018-12-30T10:15:10.095Z,1.66
2018-12-30T10:16:07.720Z,0.38
2018-12-30T10:17:07.541Z,1.56
2018-12-30T10:18:07.866Z,1.04
2018-12-30T10:19:08.333Z,1.21
2018-12-30T10:20:09.211Z,0.55
2018-12-30T10:21:09.232Z,0.69
2018-12-30T10:23:09.215Z,1.34
2018-12-30T10:24:09.618Z,1.46
2018-12-30T10:25:11.513Z,2.57
2018-12-30T10:26:10.564Z,1.42
2018-12-30T10:27:10.540Z,1.11
2018-12-30T10:28:10.834Z,0.63
2018-12-30T10:29:11.207Z,2.01
2018-12-30T10:30:11.526Z,0.76
2018-12-30T10:31:11.822Z,1.81
2018-12-30T10:32:12.117Z,1.85
2018-12-30T10:33:12.547Z,1.70
2018-12-30T10:35:13.159Z,0.92
2018-12-30T10:36:13.388Z,1.31
2018-12-30T10:37:13.315Z,1.62
2018-12-30T10:38:13.754Z,1.59
2018-12-30T10:39:13.744Z,0.86
2018-12-30T10:40:14.502Z,2.45
2018-12-30T10:41:14.508Z,1.11
2018-12-30T10:42:14.367Z,1.89
2018-12-30T10:43:14.800Z,1.94
2018-12-30T10:44:15.370Z,1.61
2018-12-30T10:45:15.648Z,1.49
2018-12-30T10:46:15.862Z,2.04
2018-12-30T10:47:15.745Z,1.29
2018-12-30T10:48:16.185Z,1.57
2018-12-30T10:49:16.539Z,1.33
2018-12-30T10:50:17.160Z,0.84
2018-12-30T10:51:16.954Z,1.09
2018-12-30T10:52:17.260Z,2.19
2018-12-30T10:53:17.974Z,1.17
2018-12-30T10:54:18.206Z,0.83
2018-12-30T10:55:18.185Z,1.15
2018-12-30T10:56:18.977Z,0.76
2018-12-30T10:57:19.836Z,1.14
2018-12-30T10:58:20.146Z,1.71
2018-12-30T10:59:20.672Z,1.77
2018-12-30T11:00:20.703Z,1.35
2018-12-30T11:01:20.685Z,2.03
2018-12-30T11:02:20.684Z,2.03
2018-12-30T11:03:20.824Z,1.59
2018-12-30T11:04:21.052Z,1.81
2018-12-30T11:05:21.168Z,1.28
2018-12-30T11:06:21.197Z,0.56
2018-12-30T11:07:21.461Z,1.40
2018-12-30T11:08:21.541Z,0.90
2018-12-30T11:09:22.085Z,1.40
2018-12-30T11:10:22.288Z,0.83
2018-12-30T11:11:22.402Z,0.21
2018-12-30T11:12:22.513Z,0.39
2018-12-30T11:13:22.552Z,0.44
2018-12-30T11:14:22.431Z,0.82
2018-12-30T11:15:22.531Z,0.91
2018-12-30T11:16:22.666Z,1.52
2018-12-30T11:17:22.782Z,0.99
2018-12-30T11:18:23.027Z,0.94
2018-12-30T11:19:23.180Z,1.06
2018-12-30T11:20:23.575Z,0.48
2018-12-30T11:21:23.813Z,0.04
2018-12-30T11:22:24.077Z,0.55
2018-12-30T11:23:24.090Z,1.62
2018-12-30T11:24:24.318Z,2.12
2018-12-30T11:25:24.320Z,2.24
2018-12-30T11:26:25.228Z,1.96
2018-12-30T11:27:25.211Z,1.05
2018-12-30T11:28:25.595Z,1.67
2018-12-30T11:29:26.010Z,0.87
2018-12-30T11:30:26.491Z,0.57
2018-12-30T11:31:27.070Z,0.63
2018-12-30T11:32:26.870Z,1.24
2018-12-30T11:33:27.330Z,1.53
2018-12-30T11:34:27.983Z,1.54
2018-12-30T11:35:27.821Z,1.81
2018-12-30T11:36:28.127Z,1.64
2018-12-30T11:37:28.454Z,1.95
2018-12-30T11:38:28.788Z,2.06
2018-12-30T11:39:29.163Z,1.76
2018-12-30T11:40:29.517Z,0.80
2018-12-30T11:41:30.029Z,0.81
2018-12-30T11:42:30.192Z,0.55
2018-12-30T11:43:30.195Z,0.48
2018-12-30T11:44:30.037Z,0.65
2018-12-30T11:45:30.497Z,1.32
2018-12-30T11:46:31.050Z,0.72
2018-12-30T11:47:30.876Z,0.93
2018-12-30T11:48:31.310Z,0.97
2018-12-30T11:49:31.772Z,0.93
2018-12-30T11:50:31.900Z,1.07
2018-12-30T11:51:32.123Z,0.77
2018-12-30T11:52:32.145Z,2.44
2018-12-30T11:53:32.221Z,1.24
2018-12-30T11:54:32.319Z,0.95
2018-12-30T11:55:32.187Z,0.83
2018-12-30T11:56:32.594Z,0.28
2018-12-30T11:57:33.766Z,0.22
2018-12-30T11:58:33.676Z,0.68
2018-12-30T11:59:34.302Z,0.76
2018-12-30T12:00:34.714Z,1.14
2018-12-30T12:01:34.919Z,1.26
2018-12-30T12:02:35.238Z,1.81
2018-12-30T12:03:35.655Z,1.35
2018-12-30T12:04:35.858Z,0.56
2018-12-30T12:05:36.182Z,0.69
2018-12-30T12:06:36.005Z,0.83
2018-12-30T12:07:36.093Z,0.68
2018-12-30T12:08:36.914Z,0.99
2018-12-30T12:09:36.925Z,1.05
2018-12-30T12:10:38.660Z,1.40
2018-12-30T12:11:37.209Z,1.83
2018-12-30T12:12:37.497Z,2.00
2018-12-30T12:13:37.760Z,1.31
2018-12-30T12:14:38.046Z,0.37
2018-12-30T12:15:38.401Z,1.42
2018-12-30T12:16:38.777Z,1.62
2018-12-30T12:17:39.052Z,1.54
2018-12-30T12:18:39.201Z,1.07
2018-12-30T12:19:39.251Z,0.59
2018-12-30T12:20:39.240Z,1.03
2018-12-30T12:21:39.174Z,1.28
2018-12-30T12:22:39.461Z,0.87
2018-12-30T12:23:39.829Z,0.79
2018-12-30T12:24:40.213Z,0.79
2018-12-30T12:25:40.475Z,1.21
2018-12-30T12:26:43.505Z,0.93
2018-12-30T12:27:41.381Z,1.69
2018-12-30T12:28:41.703Z,2.20
2018-12-30T12:29:41.487Z,2.29
2018-12-30T12:30:41.998Z,1.27
2018-12-30T12:31:42.030Z,1.50
2018-12-30T12:32:44.443Z,0.90
2018-12-30T12:33:42.427Z,2.42
2018-12-30T12:34:42.243Z,1.75
2018-12-30T12:35:42.757Z,1.77
2018-12-30T12:36:43.197Z,2.85
2018-12-30T12:37:44.012Z,1.22
2018-12-30T12:38:43.984Z,2.05
2018-12-30T12:39:44.393Z,1.49
2018-12-30T12:40:45.918Z,1.25
2018-12-30T12:41:45.207Z,1.07
2018-12-30T12:42:45.283Z,1.81
2018-12-30T12:43:45.234Z,1.34
2018-12-30T12:44:45.513Z,1.57
2018-12-30T12:45:45.957Z,2.52
2018-12-30T12:46:46.545Z,1.71
2018-12-30T12:47:46.553Z,2.11
2018-12-30T12:48:46.992Z,1.72
2018-12-30T12:49:47.421Z,1.40
2018-12-30T12:50:47.766Z,1.51
2018-12-30T12:51:49.006Z,1.14
2018-12-30T12:52:49.588Z,0.93
2018-12-30T12:53:49.797Z,1.81
2018-12-30T12:55:49.941Z,2.06
2018-12-30T12:56:50.536Z,2.11
2018-12-30T12:57:50.950Z,1.70
2018-12-30T12:58:51.468Z,1.02
2018-12-30T12:59:51.274Z,0.54
2018-12-30T13:00:51.829Z,0.88
2018-12-30T13:02:51.700Z,1.71
2018-12-30T13:03:51.603Z,1.96
2018-12-30T13:04:52.123Z,1.77
2018-12-30T13:06:52.247Z,1.79
2018-12-30T13:07:52.555Z,1.76
2018-12-30T13:08:52.371Z,1.66
2018-12-30T13:09:56.090Z,2.20
2018-12-30T13:10:52.622Z,2.24
2018-12-30T13:11:52.736Z,1.35
2018-12-30T13:12:52.945Z,0.97
2018-12-30T13:13:53.401Z,0.77
2018-12-30T13:14:53.587Z,1.55
2018-12-30T13:15:53.796Z,1.38
2018-12-30T13:16:54.011Z,2.35
2018-12-30T13:17:54.024Z,1.52
2018-12-30T13:18:54.011Z,0.85
2018-12-30T13:19:54.487Z,0.85
2018-12-30T13:20:54.913Z,1.36
2018-12-30T13:21:55.033Z,1.60
2018-12-30T13:22:55.326Z,1.73
2018-12-30T13:23:55.630Z,1.10
2018-12-30T13:24:56.198Z,1.18
2018-12-30T13:25:56.130Z,0.42
2018-12-30T13:26:56.657Z,0.32
2018-12-30T13:27:56.581Z,0.78
2018-12-30T13:28:56.896Z,0.86
2018-12-30T13:29:57.194Z,0.72
2018-12-30T13:30:57.544Z,0.53
2018-12-30T13:31:58.030Z,1.29
2018-12-30T13:32:58.063Z,0.69
2018-12-30T13:33:57.863Z,0.31